Time;durP1;ratioP1;P1;durP2;ratioP2;P2;SDS_P1;SDS_P2;PMS_P1;PMS_P2;Temp;Humidity;BMP_temperature;BMP_pressure;BME280_temperature;BME280_humidity;BME280_pressure;Samples;Min_cycle;Max_cycle;Signal;HPM_P1;HPM_P2
2021/06/15 00:02:18;;;;;;;2.97;1.50;;;487.30;1484.80;;;;;;5094101;28;20032;-63
2021/06/15 00:04:44;;;;;;;2.72;1.27;;;487.30;1484.80;;;;;;5105840;28;20101;-63
2021/06/15 00:07:10;;;;;;;5.43;1.75;;;487.30;1484.80;;;;;;5114028;28;20020;-63
2021/06/15 00:09:36;;;;;;;7.35;1.45;;;487.20;1510.40;;;;;;5114262;28;20350;-64
2021/06/15 00:12:03;;;;;;;2.47;1.42;;;487.20;1510.40;;;;;;5114287;28;20476;-63
2021/06/15 00:14:30;;;;;;;5.28;1.40;;;487.30;1510.40;;;;;;5114110;28;20476;-64
2021/06/15 00:16:55;;;;;;;3.08;1.10;;;487.30;1510.40;;;;;;5113883;28;20038;-63
2021/06/15 00:19:21;;;;;;;5.35;1.20;;;487.30;1510.40;;;;;;5114008;28;20476;-63
2021/06/15 00:21:47;;;;;;;7.15;1.30;;;487.30;1510.40;;;;;;5113925;28;20023;-63
2021/06/15 00:24:13;;;;;;;6.95;1.45;;;487.30;1510.40;;;;;;5113746;28;20027;-63
2021/06/15 00:26:39;;;;;;;5.63;1.35;;;487.30;1510.40;;;;;;5113881;28;20041;-63
2021/06/15 00:29:05;;;;;;;6.38;1.27;;;487.30;1510.40;;;;;;5113779;28;20431;-63
2021/06/15 00:31:33;;;;;;;5.57;1.40;;;487.30;1510.40;;;;;;5114078;28;20028;-63
2021/06/15 00:33:59;;;;;;;4.85;1.38;;;487.30;1510.40;;;;;;5113626;28;20494;-64
2021/06/15 00:36:24;;;;;;;2.65;1.60;;;487.30;1510.40;;;;;;5113842;28;20027;-63
2021/06/15 00:38:50;;;;;;;6.75;1.65;;;487.30;1510.40;;;;;;5113969;28;20031;-63
2021/06/15 00:41:16;;;;;;;3.38;1.40;;;487.20;1510.40;;;;;;5114336;28;20365;-63
2021/06/15 00:43:42;;;;;;;2.28;1.38;;;487.20;1510.40;;;;;;5117757;28;20027;-64
2021/06/15 00:46:08;;;;;;;2.47;1.10;;;487.20;1510.40;;;;;;5117903;28;20447;-63
2021/06/15 00:48:35;;;;;;;3.40;1.45;;;487.20;1510.40;;;;;;5117656;28;20024;-63
2021/06/15 00:51:03;;;;;;;5.07;1.63;;;487.20;1510.40;;;;;;5117589;28;20444;-63
2021/06/15 00:53:30;;;;;;;2.20;1.20;;;487.20;1510.40;;;;;;5117870;28;20510;-64
2021/06/15 00:55:57;;;;;;;3.33;1.50;;;487.20;1510.40;;;;;;5117496;28;20027;-63
2021/06/15 00:58:23;;;;;;;2.42;1.27;;;487.20;1510.40;;;;;;5117446;28;20020;-64
2021/06/15 01:00:49;;;;;;;2.60;1.52;;;487.20;1536.00;;;;;;5117621;28;20020;-64
2021/06/15 01:03:16;;;;;;;2.78;1.20;;;487.20;1510.40;;;;;;5117397;28;20027;-64
2021/06/15 01:05:43;;;;;;;3.00;1.15;;;487.20;1510.40;;;;;;5098993;28;20535;-76
2021/06/15 01:08:38;;;;;;;2.78;1.27;;;487.20;1510.40;;;;;;5117853;28;20015;-63
2021/06/15 01:11:36;;;;;;;4.90;1.70;;;487.20;1510.40;;;;;;5117372;28;20019;-63
2021/06/15 01:14:21;;;;;;;4.07;1.30;;;487.20;1536.00;;;;;;5117846;28;20128;-64
2021/06/15 01:16:50;;;;;;;4.40;1.50;;;487.20;1536.00;;;;;;5098917;28;20031;-65
2021/06/15 01:19:41;;;;;;;2.42;1.63;;;487.20;1536.00;;;;;;5117102;28;20094;-64
2021/06/15 01:22:19;;;;;;;4.20;1.33;;;487.20;1536.00;;;;;;5117101;28;20023;-64
2021/06/15 01:25:02;;;;;;;6.00;1.45;;;487.20;1536.00;;;;;;5117206;28;20023;-64
2021/06/15 01:27:47;;;;;;;5.15;1.45;;;487.10;1536.00;;;;;;5117010;28;20036;-78
2021/06/15 01:30:15;;;;;;;2.72;1.13;;;487.10;1536.00;;;;;;5117209;28;20012;-64
2021/06/15 01:33:04;;;;;;;2.95;1.30;;;487.10;1536.00;;;;;;5117144;28;20028;-77
2021/06/15 01:35:33;;;;;;;2.78;1.50;;;487.10;1536.00;;;;;;5116029;28;20388;-64
2021/06/15 01:38:09;;;;;;;4.57;1.33;;;487.10;1536.00;;;;;;5116712;28;20027;-76
2021/06/15 01:40:47;;;;;;;4.15;1.23;;;487.10;1536.00;;;;;;5116892;28;20098;-63
2021/06/15 01:43:27;;;;;;;2.20;1.15;;;487.10;1536.00;;;;;;5116917;28;20460;-64
2021/06/15 01:45:55;;;;;;;3.17;1.50;;;487.10;1536.00;;;;;;5116533;28;20039;-64
2021/06/15 01:48:48;;;;;;;2.55;1.30;;;487.10;1536.00;;;;;;5116487;28;20098;-64
2021/06/15 01:51:17;;;;;;;4.95;1.40;;;487.10;1536.00;;;;;;5116604;28;20023;-64
2021/06/15 01:53:51;;;;;;;2.03;1.30;;;487.00;1536.00;;;;;;5115837;28;20472;-64
2021/06/15 01:56:20;;;;;;;2.72;1.48;;;487.00;1536.00;;;;;;5116416;28;20380;-64
2021/06/15 01:58:47;;;;;;;4.85;1.52;;;487.00;1536.00;;;;;;5097956;28;20487;-76
2021/06/15 02:01:15;;;;;;;4.75;1.80;;;487.00;1536.00;;;;;;5116290;28;20027;-64
2021/06/15 02:03:43;;;;;;;2.00;1.30;;;486.90;1536.00;;;;;;5116360;28;20387;-78
2021/06/15 02:06:11;;;;;;;3.65;1.40;;;486.90;1561.60;;;;;;5116422;28;20042;-64
2021/06/15 02:08:43;;;;;;;6.85;1.70;;;486.90;1536.00;;;;;;5116133;28;20496;-64
2021/06/15 02:11:10;;;;;;;4.72;1.50;;;486.90;1536.00;;;;;;5116115;28;20024;-64
2021/06/15 02:13:44;;;;;;;4.93;1.40;;;486.90;1561.60;;;;;;5116112;28;20016;-64
2021/06/15 02:16:10;;;;;;;5.15;1.70;;;486.90;1561.60;;;;;;5097759;28;20027;-64
2021/06/15 02:18:39;;;;;;;5.47;1.50;;;486.80;1587.20;;;;;;5116109;28;20472;-64
2021/06/15 02:21:09;;;;;;;3.85;1.60;;;486.80;1561.60;;;;;;5115902;28;20102;-64
2021/06/15 02:23:35;;;;;;;3.22;1.50;;;486.80;1587.20;;;;;;5116168;28;20020;-64
2021/06/15 02:26:07;;;;;;;4.28;1.70;;;486.70;1587.20;;;;;;5115651;28;20035;-63
2021/06/15 02:28:34;;;;;;;3.28;1.52;;;486.70;1612.80;;;;;;5115764;28;20023;-63
2021/06/15 02:31:03;;;;;;;6.18;2.00;;;486.60;1612.80;;;;;;5115681;28;20106;-63
2021/06/15 02:33:35;;;;;;;5.35;1.65;;;486.60;1612.80;;;;;;5115875;28;20532;-64
2021/06/15 02:36:30;;;;;;;4.22;1.65;;;486.60;1612.80;;;;;;5115599;28;20115;-63
2021/06/15 02:39:07;;;;;;;3.72;1.73;;;486.60;1612.80;;;;;;5106819;28;20036;-64
2021/06/15 02:41:36;;;;;;;4.70;1.92;;;486.60;1612.80;;;;;;5115745;28;20067;-64
2021/06/15 02:44:04;;;;;;;2.28;1.70;;;486.60;1612.80;;;;;;5115435;28;20028;-64
2021/06/15 02:46:33;;;;;;;2.25;1.65;;;486.60;1612.80;;;;;;5115566;28;20482;-64
2021/06/15 02:49:02;;;;;;;7.00;1.80;;;486.60;1612.80;;;;;;5115276;28;20023;-76
2021/06/15 02:51:34;;;;;;;12.23;2.30;;;486.50;1612.80;;;;;;5115295;28;20136;-64
2021/06/15 02:54:12;;;;;;;4.05;2.10;;;486.50;1612.80;;;;;;5097014;28;20016;-63
2021/06/15 02:56:43;;;;;;;6.40;1.90;;;486.50;1612.80;;;;;;5115204;28;20027;-63
2021/06/15 02:59:09;;;;;;;9.25;2.10;;;486.50;1612.80;;;;;;5115229;28;20020;-63
2021/06/15 03:01:35;;;;;;;4.47;2.03;;;486.40;1638.40;;;;;;5115066;28;20065;-64
2021/06/15 03:04:03;;;;;;;3.33;1.88;;;486.40;1612.80;;;;;;5114918;28;20183;-75
2021/06/15 03:06:28;;;;;;;5.70;1.77;;;486.40;1638.40;;;;;;5114071;28;20039;-63
2021/06/15 03:08:55;;;;;;;7.03;2.20;;;486.40;1638.40;;;;;;5114925;28;20490;-72
2021/06/15 03:11:24;;;;;;;5.65;2.10;;;461.70;1638.40;;;;;;5115401;28;20483;-75
2021/06/15 03:14:02;;;;;;;5.40;1.90;;;461.60;1664.00;;;;;;5115519;28;20027;-64
2021/06/15 03:16:31;;;;;;;6.88;1.80;;;461.60;1638.40;;;;;;5114851;28;20027;-64
2021/06/15 03:19:07;;;;;;;4.65;1.67;;;461.60;1638.40;;;;;;5114728;28;20027;-64
2021/06/15 03:21:49;;;;;;;4.80;1.73;;;461.60;1638.40;;;;;;5115004;28;20069;-64
2021/06/15 03:24:23;;;;;;;4.20;1.70;;;461.60;1638.40;;;;;;5114721;28;20035;-64
2021/06/15 03:27:06;;;;;;;5.15;2.00;;;461.60;1638.40;;;;;;5114683;28;20039;-64
2021/06/15 03:29:40;;;;;;;10.07;2.28;;;461.60;1664.00;;;;;;5114570;28;20034;-63
2021/06/15 03:32:16;;;;;;;3.17;1.70;;;461.60;1638.40;;;;;;5114478;28;20030;-63
2021/06/15 03:34:49;;;;;;;7.68;1.67;;;461.60;1664.00;;;;;;5114418;28;20030;-64
2021/06/15 03:37:21;;;;;;;3.92;1.52;;;461.60;1664.00;;;;;;5114480;28;20099;-63
2021/06/15 03:39:49;;;;;;;4.13;2.00;;;461.60;1664.00;;;;;;5114497;28;20073;-63
2021/06/15 03:42:21;;;;;;;6.22;2.20;;;461.60;1664.00;;;;;;5114363;28;20015;-63
2021/06/15 03:44:54;;;;;;;5.93;2.20;;;461.60;1664.00;;;;;;5114406;28;20024;-63
2021/06/15 03:47:23;;;;;;;7.90;2.10;;;461.60;1664.00;;;;;;5114543;28;20059;-72
2021/06/15 03:49:54;;;;;;;3.50;2.00;;;461.60;1664.00;;;;;;5114968;28;20034;-64
2021/06/15 03:52:23;;;;;;;4.93;1.92;;;461.60;1664.00;;;;;;5095925;28;20027;-63
2021/06/15 03:54:50;;;;;;;4.90;1.80;;;461.60;1664.00;;;;;;5114181;28;20026;-64
2021/06/15 03:57:17;;;;;;;7.03;1.88;;;461.60;1664.00;;;;;;5114342;28;20089;-63
2021/06/15 03:59:47;;;;;;;4.18;1.85;;;461.60;1664.00;;;;;;5114130;28;20495;-63
2021/06/15 04:02:14;;;;;;;3.22;1.90;;;461.60;1664.00;;;;;;5114530;28;20053;-63
2021/06/15 04:04:42;;;;;;;4.95;1.90;;;461.60;1664.00;;;;;;5113720;28;20503;-63
2021/06/15 04:07:15;;;;;;;5.15;2.00;;;461.60;1664.00;;;;;;5113989;28;20055;-63
2021/06/15 04:09:42;;;;;;;2.85;1.83;;;461.70;1664.00;;;;;;5114120;28;20410;-76
2021/06/15 04:12:09;;;;;;;3.95;1.70;;;486.40;1689.60;;;;;;5114017;28;20115;-64
2021/06/15 04:14:37;;;;;;;4.07;2.13;;;461.70;1689.60;;;;;;5113893;28;20020;-64
2021/06/15 04:17:04;;;;;;;3.63;1.85;;;486.40;1689.60;;;;;;5113763;28;20103;-64
2021/06/15 04:19:47;;;;;;;3.83;1.48;;;486.40;1689.60;;;;;;5114180;28;20028;-64
2021/06/15 04:22:15;;;;;;;3.33;1.70;;;486.40;1664.00;;;;;;5113903;28;20085;-64
2021/06/15 04:24:51;;;;;;;4.35;1.73;;;486.50;1638.40;;;;;;5113797;28;20453;-65
2021/06/15 04:27:21;;;;;;;5.25;2.08;;;486.50;1664.00;;;;;;5114147;28;20016;-64
2021/06/15 04:29:48;;;;;;;7.13;1.70;;;486.50;1664.00;;;;;;5114379;28;20028;-64
2021/06/15 04:32:18;;;;;;;2.75;1.50;;;486.60;1638.40;;;;;;5113773;28;20023;-64
2021/06/15 04:34:51;;;;;;;4.45;1.75;;;486.70;1664.00;;;;;;5113771;28;20070;-77
2021/06/15 04:37:19;;;;;;;5.03;1.85;;;486.70;1664.00;;;;;;5114120;28;20034;-64
2021/06/15 04:39:50;;;;;;;4.78;1.88;;;486.80;1638.40;;;;;;5113622;28;20015;-65
2021/06/15 04:42:25;;;;;;;3.58;1.63;;;486.60;1689.60;;;;;;5113720;28;20027;-64
2021/06/15 04:44:53;;;;;;;6.30;2.00;;;486.60;1664.00;;;;;;5113620;28;20032;-65
2021/06/15 04:47:24;;;;;;;5.68;1.92;;;486.60;1664.00;;;;;;5113666;28;20541;-65
2021/06/15 04:49:50;;;;;;;4.88;1.70;;;486.60;1715.20;;;;;;5113583;28;20023;-64
2021/06/15 04:52:19;;;;;;;3.58;1.77;;;486.60;1689.60;;;;;;5113823;28;20076;-65
2021/06/15 04:54:49;;;;;;;4.15;1.85;;;486.70;1664.00;;;;;;5113686;28;20095;-65
2021/06/15 04:57:20;;;;;;;4.45;1.60;;;486.80;1664.00;;;;;;5113618;28;20024;-64
2021/06/15 04:59:50;;;;;;;5.80;1.70;;;486.80;1638.40;;;;;;5113566;28;20392;-64
2021/06/15 05:02:20;;;;;;;3.63;1.77;;;486.70;1664.00;;;;;;5113678;28;20349;-63
2021/06/15 05:04:48;;;;;;;3.38;1.88;;;486.60;1638.40;;;;;;5091558;28;20369;-74
2021/06/15 05:07:19;;;;;;;2.67;1.40;;;486.60;1638.40;;;;;;5093203;28;20048;-63
2021/06/15 05:09:48;;;;;;;4.80;1.40;;;486.70;1612.80;;;;;;5093090;28;20050;-63
2021/06/15 05:12:14;;;;;;;4.97;1.90;;;486.80;1587.20;;;;;;5093340;28;20026;-64
2021/06/15 05:14:43;;;;;;;6.45;1.55;;;486.80;1587.20;;;;;;5093029;28;20482;-75
2021/06/15 05:17:10;;;;;;;2.58;1.40;;;486.80;1587.20;;;;;;5093058;28;20039;-64
2021/06/15 05:19:39;;;;;;;4.13;1.70;;;486.80;1561.60;;;;;;5093032;28;20043;-63
2021/06/15 05:22:14;;;;;;;2.88;1.40;;;486.90;1561.60;;;;;;5092998;28;20118;-64
2021/06/15 05:24:41;;;;;;;3.75;1.45;;;486.90;1561.60;;;;;;5092875;28;20024;-65
2021/06/15 05:27:07;;;;;;;7.18;1.77;;;486.90;1587.20;;;;;;5092961;28;20020;-64
2021/06/15 05:29:33;;;;;;;3.58;1.88;;;486.90;1561.60;;;;;;5095401;28;20020;-64
2021/06/15 05:32:00;;;;;;;3.92;1.65;;;486.90;1561.60;;;;;;5096517;28;20350;-64
2021/06/15 05:34:26;;;;;;;3.13;1.60;;;486.90;1561.60;;;;;;5096260;28;20082;-64
2021/06/15 05:36:51;;;;;;;6.00;2.10;;;486.90;1561.60;;;;;;5096460;28;20481;-64
2021/06/15 05:39:17;;;;;;;5.72;1.98;;;487.00;1561.60;;;;;;5096316;28;20028;-77
2021/06/15 05:41:43;;;;;;;2.85;1.73;;;487.10;1561.60;;;;;;5096667;28;20074;-65
2021/06/15 05:44:09;;;;;;;3.60;1.70;;;487.10;1561.60;;;;;;5096231;28;20020;-64
2021/06/15 05:46:35;;;;;;;5.90;2.10;;;487.20;1536.00;;;;;;5096091;28;20038;-64
2021/06/15 05:49:01;;;;;;;3.78;1.60;;;487.20;1561.60;;;;;;5096197;28;20012;-64
2021/06/15 05:51:27;;;;;;;8.80;1.90;;;487.20;1536.00;;;;;;5096499;28;20381;-65
2021/06/15 05:53:54;;;;;;;4.53;2.00;;;487.20;1536.00;;;;;;5096035;28;20012;-64
2021/06/15 05:56:19;;;;;;;4.68;1.90;;;487.30;1536.00;;;;;;5095987;28;20048;-65
2021/06/15 05:58:45;;;;;;;5.72;1.65;;;487.30;1561.60;;;;;;5096329;28;20039;-65
2021/06/15 06:01:11;;;;;;;3.90;1.80;;;512.00;1561.60;;;;;;5096127;28;20366;-64
2021/06/15 06:03:38;;;;;;;6.82;2.70;;;512.00;1561.60;;;;;;5098101;28;20039;-64
2021/06/15 06:08:49;;;;;;;6.47;2.03;;;487.20;1561.60;;;;;;5113456;28;20026;-63
2021/06/15 06:11:14;;;;;;;4.72;1.73;;;487.30;1612.80;;;;;;5115601;28;20024;-76
2021/06/15 06:13:40;;;;;;;4.75;1.88;;;487.30;1587.20;;;;;;5097447;28;20016;-75
2021/06/15 06:16:09;;;;;;;6.65;1.92;;;512.00;1561.60;;;;;;5115493;28;20379;-76
2021/06/15 06:18:36;;;;;;;3.88;1.70;;;512.00;1561.60;;;;;;5115881;28;20475;-76
2021/06/15 06:21:06;;;;;;;6.30;1.77;;;512.20;1536.00;;;;;;5115869;28;20026;-77
2021/06/15 06:23:34;;;;;;;3.60;1.90;;;512.30;1561.60;;;;;;5115269;28;20055;-77
2021/06/15 06:26:00;;;;;;;4.80;1.88;;;512.40;1561.60;;;;;;5115124;28;20552;-77
2021/06/15 06:28:26;;;;;;;5.68;1.52;;;512.40;1561.60;;;;;;5115518;28;20066;-76
2021/06/15 06:30:51;;;;;;;11.75;6.75;;;512.50;1561.60;;;;;;5115258;28;20027;-76
2021/06/15 06:33:17;;;;;;;6.40;1.80;;;512.60;1536.00;;;;;;5115365;28;20483;-78
2021/06/15 06:35:43;;;;;;;11.55;6.28;;;512.80;1536.00;;;;;;5115201;28;20035;-75
2021/06/15 06:38:09;;;;;;;7.70;2.13;;;512.90;1536.00;;;;;;5114846;28;20380;-67
2021/06/15 06:40:35;;;;;;;4.28;2.10;;;512.90;1510.40;;;;;;5115295;28;20051;-65
2021/06/15 06:43:01;;;;;;;6.95;1.95;;;537.60;1536.00;;;;;;5115032;28;20071;-74
2021/06/15 06:45:26;;;;;;;2.83;1.67;;;537.60;1510.40;;;;;;5115261;28;20425;-76
2021/06/15 06:47:53;;;;;;;10.32;2.00;;;537.60;1536.00;;;;;;5115604;28;20016;-64
2021/06/15 06:50:19;;;;;;;3.70;1.80;;;537.60;1484.80;;;;;;5115321;28;20030;-65
2021/06/15 06:52:45;;;;;;;7.40;2.10;;;537.60;1510.40;;;;;;5115328;28;20387;-77
2021/06/15 06:55:12;;;;;;;4.22;1.90;;;537.60;1510.40;;;;;;5121649;27;20028;-72
2021/06/15 06:57:38;;;;;;;3.25;1.67;;;537.60;1484.80;;;;;;5114809;28;20486;-64
2021/06/15 07:00:04;;;;;;;7.65;1.88;;;537.70;1484.80;;;;;;5114498;28;20019;-76
2021/06/15 07:02:30;;;;;;;6.15;1.90;;;537.80;1459.20;;;;;;5096206;28;20024;-76
2021/06/15 07:04:56;;;;;;;4.20;1.67;;;537.90;1433.60;;;;;;5114231;28;20046;-78
2021/06/15 07:07:22;;;;;;;33.83;22.60;;;538.10;1433.60;;;;;;5114497;28;20031;-76
2021/06/15 07:09:48;;;;;;;6.13;3.00;;;538.00;1459.20;;;;;;5113983;28;20019;-77
2021/06/15 07:12:14;;;;;;;3.47;1.90;;;538.10;1433.60;;;;;;5113996;28;20383;-78
2021/06/15 07:14:40;;;;;;;5.53;1.58;;;538.00;1433.60;;;;;;5113892;28;20016;-64
2021/06/15 07:17:06;;;;;;;5.85;1.50;;;538.10;1433.60;;;;;;5111661;28;20103;-64
2021/06/15 07:19:32;;;;;;;4.93;1.90;;;538.10;1382.40;;;;;;5114430;28;20480;-64
2021/06/15 07:21:58;;;;;;;9.38;2.80;;;538.30;1382.40;;;;;;5121342;27;20060;-74
2021/06/15 07:24:24;;;;;;;6.55;2.00;;;538.40;1433.60;;;;;;5113883;28;20396;-74
2021/06/15 07:26:50;;;;;;;15.60;2.63;;;538.40;1433.60;;;;;;5113737;28;20020;-74
2021/06/15 07:29:15;;;;;;;7.35;1.90;;;538.50;1408.00;;;;;;5113625;28;20031;-74
2021/06/15 07:31:42;;;;;;;5.65;2.08;;;563.20;1459.20;;;;;;5113478;28;20091;-64
2021/06/15 07:34:07;;;;;;;6.47;1.80;;;563.20;1433.60;;;;;;5113624;28;20373;-70
2021/06/15 07:36:33;;;;;;;8.02;1.73;;;563.20;1433.60;;;;;;5113441;28;20031;-74
2021/06/15 07:38:59;;;;;;;6.57;2.10;;;563.20;1459.20;;;;;;5113384;28;20023;-74
2021/06/15 07:41:25;;;;;;;4.57;2.00;;;563.50;1433.60;;;;;;5113544;28;20049;-75
2021/06/15 07:43:51;;;;;;;5.13;1.90;;;563.50;1408.00;;;;;;5113628;28;20024;-64
2021/06/15 07:46:16;;;;;;;8.48;2.08;;;563.70;1331.20;;;;;;5114023;28;20091;-62
2021/06/15 07:48:43;;;;;;;8.00;1.90;;;563.80;1331.20;;;;;;5113546;28;20015;-76
2021/06/15 07:51:09;;;;;;;4.70;1.90;;;563.90;1280.00;;;;;;5113059;28;20099;-63
2021/06/15 07:53:35;;;;;;;4.15;1.88;;;564.10;1280.00;;;;;;5113297;28;20044;-71
2021/06/15 07:56:01;;;;;;;7.35;1.90;;;564.10;1254.40;;;;;;5113775;28;20055;-71
2021/06/15 07:58:26;;;;;;;5.50;2.15;;;588.80;1305.60;;;;;;5112914;28;20024;-74
2021/06/15 08:00:52;;;;;;;5.03;1.85;;;588.80;1331.20;;;;;;5112979;28;20027;-66
2021/06/15 08:03:18;;;;;;;5.38;1.67;;;588.80;1280.00;;;;;;5112867;28;20042;-64
2021/06/15 08:05:44;;;;;;;5.35;1.73;;;588.80;1280.00;;;;;;5113205;28;20085;-73
2021/06/15 08:08:10;;;;;;;8.05;3.85;;;588.80;1305.60;;;;;;5113659;28;20522;-64
2021/06/15 08:10:37;;;;;;;3.80;2.80;;;589.10;1254.40;;;;;;5113778;28;20023;-74
2021/06/15 08:13:03;;;;;;;6.10;2.88;;;589.10;1254.40;;;;;;5113747;28;20019;-77
2021/06/15 08:15:29;;;;;;;6.60;2.00;;;589.00;1254.40;;;;;;5113728;28;20085;-67
2021/06/15 08:17:54;;;;;;;8.45;1.60;;;589.20;1203.20;;;;;;5113069;28;20523;-64
2021/06/15 08:20:22;;;;;;;4.80;2.10;;;589.40;1203.20;;;;;;5112558;28;20034;-74
2021/06/15 08:22:48;;;;;;;3.78;1.88;;;589.30;1203.20;;;;;;5109917;28;20096;-59
2021/06/15 08:25:14;;;;;;;6.38;1.90;;;589.30;1177.60;;;;;;5113233;28;20127;-63
2021/06/15 08:27:40;;;;;;;6.10;1.92;;;589.30;1203.20;;;;;;5102012;28;20023;-62
2021/06/15 08:30:08;;;;;;;3.58;1.70;;;589.30;1203.20;;;;;;5111467;28;20023;-62
2021/06/15 08:32:34;;;;;;;4.90;1.90;;;589.40;1203.20;;;;;;5093865;28;20016;-62
2021/06/15 08:35:00;;;;;;;6.22;1.83;;;589.40;1177.60;;;;;;5110672;28;20027;-62
2021/06/15 08:37:26;;;;;;;5.65;2.33;;;589.50;1228.80;;;;;;5110952;28;20496;-61
2021/06/15 08:39:51;;;;;;;6.68;2.10;;;589.50;1203.20;;;;;;5112034;28;20095;-60
2021/06/15 08:42:17;;;;;;;5.43;2.10;;;589.50;1203.20;;;;;;5111843;28;20019;-61
2021/06/15 08:44:44;;;;;;;10.63;2.92;;;589.60;1203.20;;;;;;5112595;28;20106;-62
2021/06/15 08:47:14;;;;;;;6.45;2.00;;;589.70;1228.80;;;;;;5111687;28;20460;-64
2021/06/15 08:49:44;;;;;;;6.07;2.00;;;589.70;1177.60;;;;;;5112336;28;20035;-64
2021/06/15 08:52:10;;;;;;;4.55;1.77;;;614.40;1203.20;;;;;;5111782;28;20059;-64
2021/06/15 08:54:38;;;;;;;8.05;2.13;;;614.40;1203.20;;;;;;5112208;28;20472;-62
2021/06/15 08:57:04;;;;;;;6.25;1.85;;;614.40;1203.20;;;;;;5111843;28;20037;-59
2021/06/15 08:59:30;;;;;;;4.95;1.50;;;614.40;1203.20;;;;;;5111637;28;20023;-64
2021/06/15 09:02:03;;;;;;;7.03;1.83;;;614.40;1177.60;;;;;;5111762;28;20034;-61
2021/06/15 09:04:29;;;;;;;4.63;2.03;;;614.40;1177.60;;;;;;5113363;28;20043;-64
2021/06/15 09:06:56;;;;;;;5.45;2.20;;;589.70;1177.60;;;;;;5115120;28;20350;-64
2021/06/15 09:09:22;;;;;;;9.23;2.97;;;614.40;1203.20;;;;;;5115316;28;20513;-64
2021/06/15 09:11:55;;;;;;;7.70;3.00;;;614.40;1177.60;;;;;;5102453;28;20484;-65
2021/06/15 09:14:42;;;;;;;6.70;2.20;;;614.50;1203.20;;;;;;5115266;28;20015;-64
2021/06/15 09:17:29;;;;;;;4.55;2.30;;;614.50;1203.20;;;;;;5115566;28;20136;-59
2021/06/15 09:19:58;;;;;;;3.63;2.20;;;614.50;1203.20;;;;;;5079729;28;20066;-63
2021/06/15 09:22:32;;;;;;;4.90;1.85;;;614.50;1228.80;;;;;;5115843;28;20518;-61
2021/06/15 09:24:58;;;;;;;6.20;2.22;;;614.50;1228.80;;;;;;5115315;28;20032;-63
2021/06/15 09:27:28;;;;;;;4.50;2.10;;;614.50;1203.20;;;;;;5115326;28;20468;-58
2021/06/15 09:29:55;;;;;;;7.00;2.00;;;614.50;1203.20;;;;;;5114617;28;20020;-62
2021/06/15 09:32:24;;;;;;;7.03;1.95;;;614.50;1177.60;;;;;;5114362;28;20077;-64
2021/06/15 09:34:54;;;;;;;7.40;2.05;;;614.50;1203.20;;;;;;5114348;28;20040;-65
2021/06/15 09:37:47;;;;;;;8.35;2.20;;;614.40;1203.20;;;;;;5113870;28;20049;-59
2021/06/15 09:40:17;;;;;;;5.13;2.08;;;614.50;1203.20;;;;;;5114411;28;20023;-59
2021/06/15 09:43:01;;;;;;;5.72;1.58;;;614.60;1177.60;;;;;;5114058;28;20395;-59
2021/06/15 09:45:43;;;;;;;10.00;1.75;;;614.60;1203.20;;;;;;5116037;28;20379;-62
2021/06/15 09:48:31;;;;;;;5.72;1.75;;;614.60;1203.20;;;;;;5107117;28;20455;-60
2021/06/15 09:51:00;;;;;;;8.13;1.92;;;614.60;1177.60;;;;;;5111890;28;20510;-61
2021/06/15 09:53:36;;;;;;;6.18;1.63;;;614.60;1203.20;;;;;;5114295;28;20016;-63
2021/06/15 09:56:10;;;;;;;5.63;1.88;;;614.70;1177.60;;;;;;5094849;28;20019;-62
2021/06/15 09:58:50;;;;;;;13.15;2.25;;;614.80;1177.60;;;;;;5115047;28;20019;-63
2021/06/15 10:01:24;;;;;;;9.38;2.78;;;614.80;1177.60;;;;;;5112743;28;20050;-59
2021/06/15 10:04:12;;;;;;;7.03;1.67;;;614.80;1177.60;;;;;;5113694;28;20067;-58
2021/06/15 10:06:41;;;;;;;5.90;1.95;;;614.90;1177.60;;;;;;5114324;28;20027;-62
2021/06/15 10:09:07;;;;;;;2.20;1.38;;;614.90;1177.60;;;;;;5114066;28;20512;-60
2021/06/15 10:11:33;;;;;;;2.75;1.98;;;614.90;1177.60;;;;;;5114436;28;20106;-65
2021/06/15 10:14:02;;;;;;;7.13;1.83;;;614.90;1177.60;;;;;;5113706;28;20483;-61
2021/06/15 10:16:28;;;;;;;2.72;1.67;;;614.90;1177.60;;;;;;5114571;28;20033;-63
2021/06/15 10:18:54;;;;;;;7.15;2.03;;;614.90;1203.20;;;;;;5114535;28;20024;-62
2021/06/15 10:21:20;;;;;;;6.20;2.13;;;614.90;1177.60;;;;;;5114284;28;20019;-64
2021/06/15 10:23:46;;;;;;;10.88;1.70;;;614.90;1203.20;;;;;;5113603;28;20033;-59
2021/06/15 10:26:12;;;;;;;8.73;2.13;;;614.90;1177.60;;;;;;5114425;28;20081;-63
2021/06/15 10:28:39;;;;;;;6.38;1.70;;;615.00;1177.60;;;;;;5113916;28;20024;-61
2021/06/15 10:31:05;;;;;;;7.13;1.70;;;615.00;1203.20;;;;;;5113270;28;20073;-61
2021/06/15 10:33:45;;;;;;;3.85;1.83;;;615.00;1203.20;;;;;;5112005;28;20074;-64
2021/06/15 10:36:13;;;;;;;4.03;1.65;;;615.10;1177.60;;;;;;5113893;28;20020;-60
2021/06/15 10:38:45;;;;;;;4.10;1.70;;;615.20;1177.60;;;;;;5113167;28;20519;-63
2021/06/15 10:41:23;;;;;;;4.43;1.50;;;615.30;1177.60;;;;;;5113015;28;20027;-60
2021/06/15 10:43:58;;;;;;;6.95;1.85;;;615.20;1152.00;;;;;;5114156;28;20030;-62
2021/06/15 10:46:35;;;;;;;4.68;1.40;;;615.20;1177.60;;;;;;5113755;28;20031;-63
2021/06/15 10:49:10;;;;;;;5.50;1.60;;;615.20;1177.60;;;;;;5113996;28;20395;-60
2021/06/15 10:51:49;;;;;;;6.07;1.95;;;615.20;1177.60;;;;;;5113478;28;20080;-63
2021/06/15 10:54:29;;;;;;;11.40;1.92;;;615.20;1203.20;;;;;;5114113;28;20022;-63
2021/06/15 10:57:13;;;;;;;4.93;2.15;;;615.30;1203.20;;;;;;5113424;28;20032;-64
2021/06/15 11:00:01;;;;;;;6.32;2.30;;;615.30;1177.60;;;;;;5128943;27;20498;-59
2021/06/15 11:02:30;;;;;;;2.72;1.50;;;640.00;1177.60;;;;;;5113101;28;20023;-59
2021/06/15 11:04:56;;;;;;;5.75;1.90;;;640.00;1152.00;;;;;;5113009;28;20509;-63
2021/06/15 11:07:29;;;;;;;3.33;2.35;;;640.10;1177.60;;;;;;5112688;28;20108;-59
2021/06/15 11:09:55;;;;;;;2.47;1.70;;;640.00;1177.60;;;;;;5112887;28;20015;-61
2021/06/15 11:12:21;;;;;;;2.78;1.60;;;640.00;1152.00;;;;;;5112636;28;20391;-62
2021/06/15 11:15:06;;;;;;;9.20;1.90;;;640.10;1177.60;;;;;;5113023;28;20375;-59
2021/06/15 11:17:47;;;;;;;7.22;1.88;;;640.20;1177.60;;;;;;5113215;28;20376;-59
2021/06/15 11:20:25;;;;;;;2.53;1.65;;;640.20;1152.00;;;;;;5111091;28;20019;-59
2021/06/15 11:23:22;;;;;;;45.35;3.50;;;640.20;1152.00;;;;;;5113051;28;20104;-59
2021/06/15 11:25:54;;;;;;;6.00;1.88;;;640.30;1126.40;;;;;;5110910;28;20048;-63
2021/06/15 11:28:46;;;;;;;3.77;1.60;;;640.30;1152.00;;;;;;5106413;28;20031;-62
2021/06/15 11:31:18;;;;;;;10.18;1.90;;;640.40;1126.40;;;;;;5110669;28;20772;-63
2021/06/15 11:34:14;;;;;;;4.40;1.40;;;640.50;1126.40;;;;;;5109584;28;20008;-63
2021/06/15 11:36:53;;;;;;;16.90;1.98;;;640.60;1152.00;;;;;;5109162;28;20023;-60
2021/06/15 11:39:22;;;;;;;10.63;1.60;;;640.60;1126.40;;;;;;5090343;28;20053;-63
2021/06/15 11:42:07;;;;;;;24.35;7.07;;;;;;;;;;5092511;28;20011;-63
2021/06/15 11:44:59;;;;;;;14.43;5.80;;;640.90;1100.80;;;;;;5110865;28;21485;-63
2021/06/15 11:47:39;;;;;;;3.63;1.73;;;640.90;1126.40;;;;;;5109441;28;20028;-64
2021/06/15 11:50:14;;;;;;;5.88;3.60;;;640.80;1075.20;;;;;;5109823;28;20016;-62
2021/06/15 11:52:47;;;;;;;42.45;19.55;;;640.70;1075.20;;;;;;5107781;28;20027;-61
2021/06/15 11:55:13;;;;;;;60.30;26.55;;;640.60;1100.80;;;;;;5111203;28;20054;-61
2021/06/15 11:57:40;;;;;;;43.70;20.75;;;640.60;1126.40;;;;;;5110582;28;20472;-60
2021/06/15 12:00:19;;;;;;;53.00;21.02;;;640.60;1126.40;;;;;;5091338;28;20016;-62
2021/06/15 12:02:45;;;;;;;13.02;4.28;;;640.60;1126.40;;;;;;5091022;28;20023;-63
2021/06/15 12:05:13;;;;;;;15.18;6.72;;;640.60;1100.80;;;;;;5110790;28;20178;-61
2021/06/15 12:07:51;;;;;;;37.55;17.17;;;640.60;1126.40;;;;;;5111487;28;20114;-63
2021/06/15 12:10:17;;;;;;;22.20;9.98;;;640.60;1126.40;;;;;;5111877;28;20020;-59
2021/06/15 12:12:56;;;;;;;14.77;6.47;;;640.60;1126.40;;;;;;5112648;28;20544;-64
2021/06/15 12:15:28;;;;;;;16.00;5.88;;;640.60;1126.40;;;;;;5111904;28;20036;-62
2021/06/15 12:17:54;;;;;;;38.58;13.60;;;640.70;1126.40;;;;;;5112339;28;20026;-58
2021/06/15 12:20:21;;;;;;;3.53;1.50;;;640.80;1126.40;;;;;;5112709;28;20084;-59
2021/06/15 12:22:47;;;;;;;13.13;5.50;;;640.80;1100.80;;;;;;5112808;28;20460;-59
2021/06/15 12:25:13;;;;;;;41.50;16.63;;;665.60;1126.40;;;;;;5112873;28;20042;-61
2021/06/15 12:27:39;;;;;;;20.55;9.02;;;640.90;1100.80;;;;;;5113351;28;20463;-59
2021/06/15 12:30:06;;;;;;;10.63;4.50;;;665.60;1126.40;;;;;;5111350;28;20024;-60
2021/06/15 12:32:48;;;;;;;19.58;4.80;;;665.60;1126.40;;;;;;5112212;28;20020;-59
2021/06/15 12:35:18;;;;;;;8.45;2.88;;;665.80;1126.40;;;;;;5111454;28;20023;-59